Time;durP1;ratioP1;P1;durP2;ratioP2;P2;SDS_P1;SDS_P2;PMS_P1;PMS_P2;Temp;Humidity;BMP_temperature;BMP_pressure;BME280_temperature;BME280_humidity;BME280_pressure;Samples;Min_cycle;Max_cycle;Signal;HPM_P1;HPM_P2
2021/06/17 00:01:28;;;;;;;4.82;3.88;;;;;;;25.77;42.40;100988.91;4206716;28;20024;-62
2021/06/17 00:03:29;;;;;;;5.28;4.72;;;;;;;25.63;42.31;100980.59;4209343;28;20423;-62
2021/06/17 00:05:32;;;;;;;5.00;4.53;;;;;;;25.67;42.23;100998.41;4209380;28;20509;-61
2021/06/17 00:07:32;;;;;;;4.93;4.13;;;;;;;25.62;42.57;100996.59;4209073;28;20024;-61
2021/06/17 00:09:33;;;;;;;5.55;4.70;;;;;;;25.63;42.79;100997.44;4208620;28;20153;-62
2021/06/17 00:11:33;;;;;;;4.80;4.40;;;;;;;25.60;42.60;100993.28;4207245;28;20150;-63
2021/06/17 00:13:36;;;;;;;5.13;4.32;;;;;;;25.60;42.72;100990.47;4209319;28;20454;-62
2021/06/17 00:15:38;;;;;;;6.28;5.30;;;;;;;25.62;42.88;100993.78;4208034;28;20063;-61
2021/06/17 00:17:42;;;;;;;5.30;4.40;;;;;;;25.60;42.72;100987.69;4204037;28;20053;-61
2021/06/17 00:19:42;;;;;;;5.35;4.53;;;;;;;25.58;42.88;100984.38;4209500;28;20057;-62
2021/06/17 00:21:42;;;;;;;6.32;5.75;;;;;;;25.57;42.93;100990.31;4208668;28;20043;-61
2021/06/17 00:23:43;;;;;;;6.13;5.40;;;;;;;25.58;42.90;100990.00;4209769;28;20035;-62
2021/06/17 00:25:44;;;;;;;6.03;5.47;;;;;;;25.56;43.06;100992.25;4208598;28;20051;-62
2021/06/17 00:27:44;;;;;;;4.60;4.10;;;;;;;25.53;42.96;100990.09;4208115;28;20024;-63
2021/06/17 00:29:45;;;;;;;7.53;5.18;;;;;;;25.52;43.28;100985.66;4209602;28;20671;-61
2021/06/17 00:31:46;;;;;;;5.38;4.88;;;;;;;25.53;43.05;100980.88;4208991;28;20078;-63
2021/06/17 00:33:46;;;;;;;5.68;5.18;;;;;;;25.58;43.11;100977.94;4208517;28;20043;-63
2021/06/17 00:35:47;;;;;;;6.43;5.50;;;;;;;25.49;43.34;100980.72;4206009;28;20040;-62
2021/06/17 00:37:48;;;;;;;5.70;5.05;;;;;;;25.51;43.54;100972.78;4208885;28;20094;-61
2021/06/17 00:39:48;;;;;;;6.78;5.68;;;;;;;25.51;43.38;100975.59;4210020;28;20065;-60
2021/06/17 00:41:48;;;;;;;5.65;5.15;;;;;;;25.49;43.80;100965.84;4208484;28;20032;-61
2021/06/17 00:43:49;;;;;;;6.50;4.85;;;;;;;25.54;43.25;100983.38;4207159;28;20055;-61
2021/06/17 00:45:52;;;;;;;5.18;4.72;;;;;;;25.46;43.58;100976.56;4206043;28;20673;-61
2021/06/17 00:47:52;;;;;;;7.60;5.00;;;;;;;25.50;43.60;100973.13;4208832;28;20085;-62
2021/06/17 00:49:53;;;;;;;9.00;5.32;;;;;;;25.48;43.75;100969.81;4208682;28;20507;-61
2021/06/17 00:51:53;;;;;;;7.95;5.30;;;;;;;25.48;43.73;100967.84;4208484;28;20040;-61
2021/06/17 00:53:54;;;;;;;5.78;5.25;;;;;;;25.43;44.04;100966.00;4206981;28;20069;-61
2021/06/17 00:55:55;;;;;;;5.47;5.00;;;;;;;25.42;44.01;100967.13;4207608;28;20378;-62
2021/06/17 00:57:55;;;;;;;9.02;4.90;;;;;;;25.43;44.12;100963.19;4201570;28;20040;-62
2021/06/17 00:59:56;;;;;;;7.35;4.90;;;;;;;25.37;44.27;100961.69;4206307;28;20047;-62
2021/06/17 01:01:56;;;;;;;5.57;4.72;;;;;;;25.42;44.01;100964.34;4205160;28;20047;-61
2021/06/17 01:03:57;;;;;;;9.52;4.68;;;;;;;25.40;44.06;100971.44;4207955;28;20104;-61
2021/06/17 01:05:57;;;;;;;5.53;4.82;;;;;;;25.43;44.18;100976.38;4207430;28;20039;-60
2021/06/17 01:08:17;;;;;;;5.97;5.25;;;;;;;25.41;44.37;100965.50;4209564;28;20036;-61
2021/06/17 01:10:42;;;;;;;6.53;4.73;;;;;;;25.42;44.34;100964.34;4201224;28;20046;-62
2021/06/17 01:13:12;;;;;;;5.93;5.07;;;;;;;25.41;44.18;100961.84;4206853;28;20103;-61
2021/06/17 01:15:17;;;;;;;6.70;4.05;;;;;;;25.39;44.54;100964.16;4207477;28;20035;-61
2021/06/17 01:17:21;;;;;;;6.07;4.50;;;;;;;25.36;44.58;100959.19;4209309;28;20389;-61
2021/06/17 01:19:31;;;;;;;6.30;5.15;;;;;;;25.36;44.57;100959.19;4208785;28;20028;-61
2021/06/17 01:21:55;;;;;;;5.90;4.57;;;;;;;25.35;44.85;100965.94;4205495;28;20097;-62
2021/06/17 01:24:36;;;;;;;4.45;4.05;;;;;;;25.37;44.29;100958.88;4207440;28;20050;-62
2021/06/17 01:26:36;;;;;;;;;;;;;;;25.36;44.62;100962.81;4207719;28;20137;-60
2021/06/17 01:28:38;;;;;;;4.38;4.00;;;;;;;25.38;44.65;100968.09;4208538;28;20398;-61
2021/06/17 01:31:03;;;;;;;6.60;4.70;;;;;;;25.37;44.69;100960.84;4209218;28;20049;-62
2021/06/17 01:33:05;;;;;;;6.43;4.63;;;;;;;25.37;44.43;100960.84;4194924;28;20048;-64
2021/06/17 01:35:09;;;;;;;5.15;4.65;;;;;;;25.42;44.29;100969.13;4206976;28;20115;-63
2021/06/17 01:37:12;;;;;;;5.50;5.00;;;;;;;25.36;44.53;100962.00;4204582;28;20496;-63
2021/06/17 01:39:15;;;;;;;4.85;4.45;;;;;;;25.35;44.45;100963.97;4207579;28;20047;-63
2021/06/17 01:41:20;;;;;;;5.72;4.75;;;;;;;25.36;44.72;100960.00;4209037;28;20437;-63
2021/06/17 01:43:21;;;;;;;6.05;5.13;;;;;;;25.31;44.58;100962.16;4207376;28;20525;-63
2021/06/17 01:45:26;;;;;;;8.75;5.00;;;;;;;25.33;44.80;100955.06;4207491;28;20036;-63
2021/06/17 01:47:28;;;;;;;5.63;5.07;;;;;;;25.33;44.66;100957.84;4208192;28;20039;-63
2021/06/17 01:49:30;;;;;;;6.07;5.05;;;;;;;25.34;44.91;100955.91;4207564;28;20034;-64
2021/06/17 01:51:31;;;;;;;6.32;4.63;;;;;;;25.30;45.14;100955.69;4201583;28;20024;-64
2021/06/17 01:53:32;;;;;;;4.97;4.47;;;;;;;25.30;45.15;100955.69;4207158;28;20043;-64
2021/06/17 01:55:35;;;;;;;6.32;5.15;;;;;;;25.23;45.03;100949.75;4208348;28;20573;-65
2021/06/17 01:57:38;;;;;;;6.75;5.03;;;;;;;25.23;45.29;100942.16;4208163;28;20028;-65
2021/06/17 01:59:44;;;;;;;6.53;5.90;;;;;;;25.22;45.50;100934.06;4208181;28;20471;-63
2021/06/17 02:01:45;;;;;;;4.93;4.35;;;;;;;25.21;44.94;100938.84;4206742;28;20028;-64
2021/06/17 02:03:47;;;;;;;10.55;5.20;;;;;;;25.24;45.45;100929.81;4206745;28;20047;-64
2021/06/17 02:05:48;;;;;;;5.78;5.25;;;;;;;25.23;45.25;100930.94;4207266;28;20363;-64
2021/06/17 02:07:51;;;;;;;5.28;4.68;;;;;;;25.22;45.36;100923.69;4208764;28;20020;-63
2021/06/17 02:09:53;;;;;;;5.43;4.85;;;;;;;25.21;45.58;100924.00;4206077;28;20042;-63
2021/06/17 02:11:55;;;;;;;9.15;6.40;;;;;;;25.16;45.46;100919.31;4208122;28;20024;-63
2021/06/17 02:13:56;;;;;;;9.00;6.00;;;;;;;25.12;45.76;100921.13;4208137;28;20028;-63
2021/06/17 02:15:58;;;;;;;11.13;5.40;;;;;;;25.08;45.94;100915.31;4205312;28;21359;-63
2021/06/17 02:17:59;;;;;;;8.25;5.57;;;;;;;25.16;45.92;100908.13;4208349;28;20032;-63
2021/06/17 02:20:00;;;;;;;6.45;5.28;;;;;;;25.16;45.59;100905.31;4206842;28;20028;-63
2021/06/17 02:22:01;;;;;;;8.07;6.00;;;;;;;25.12;45.77;100893.13;4208122;28;20102;-63
2021/06/17 02:24:07;;;;;;;9.05;6.55;;;;;;;25.13;46.06;100893.94;4203388;28;20032;-62
2021/06/17 02:26:10;;;;;;;8.32;5.97;;;;;;;25.16;45.96;100894.13;4204166;28;20122;-63
2021/06/17 02:28:16;;;;;;;6.78;6.07;;;;;;;25.15;45.80;100892.47;4207764;28;20040;-64
2021/06/17 02:30:16;;;;;;;6.63;5.78;;;;;;;25.15;45.91;100883.22;4208218;28;20032;-63
2021/06/17 02:32:22;;;;;;;9.57;5.70;;;;;;;25.10;45.89;100890.66;4205803;28;20501;-62
2021/06/17 02:34:24;;;;;;;7.60;5.60;;;;;;;25.13;45.82;100879.94;4208162;28;20660;-61
2021/06/17 02:36:27;;;;;;;8.55;5.70;;;;;;;25.11;45.77;100871.84;4205582;28;20040;-61
2021/06/17 02:38:30;;;;;;;6.20;5.57;;;;;;;25.12;45.94;100867.91;4207221;28;20203;-62
2021/06/17 02:40:34;;;;;;;11.55;5.47;;;;;;;25.09;45.94;100865.75;4206207;28;20051;-61
2021/06/17 02:42:36;;;;;;;6.72;6.15;;;;;;;25.08;45.85;100859.31;4206100;28;20020;-63
2021/06/17 02:44:36;;;;;;;6.93;5.38;;;;;;;25.06;45.35;100855.19;4207053;28;20079;-63
2021/06/17 02:46:37;;;;;;;6.97;5.95;;;;;;;25.01;46.29;100858.13;4206372;28;20040;-65
2021/06/17 02:48:38;;;;;;;6.60;5.50;;;;;;;25.02;46.13;100859.78;4207315;28;20036;-65
2021/06/17 02:50:39;;;;;;;8.23;6.00;;;;;;;25.02;46.24;100855.00;4207179;28;20035;-64
2021/06/17 02:52:40;;;;;;;7.00;5.95;;;;;;;25.01;46.11;100872.13;4207542;28;20501;-64
2021/06/17 02:54:40;;;;;;;6.45;5.78;;;;;;;25.04;45.84;100868.69;4206617;28;20028;-65
2021/06/17 02:56:47;;;;;;;7.03;6.32;;;;;;;25.05;45.89;100864.75;4206475;28;20036;-63
2021/06/17 02:58:53;;;;;;;8.85;6.22;;;;;;;25.01;46.17;100869.31;4208484;28;20024;-62
2021/06/17 03:01:01;;;;;;;6.03;5.45;;;;;;;25.02;46.05;100870.97;4208213;28;20039;-62
2021/06/17 03:03:12;;;;;;;8.05;5.90;;;;;;;25.03;45.94;100862.25;4208831;28;21402;-61
2021/06/17 03:05:19;;;;;;;6.00;5.50;;;;;;;25.00;46.31;100868.50;4210239;28;20024;-62
2021/06/17 03:07:25;;;;;;;8.35;5.68;;;;;;;24.95;46.09;100871.44;4209577;28;20040;-61
2021/06/17 03:09:37;;;;;;;6.85;5.38;;;;;;;24.93;46.47;100868.97;4209944;28;20039;-61
2021/06/17 03:11:41;;;;;;;7.97;5.78;;;;;;;24.92;46.61;100872.91;4209498;28;20028;-60
2021/06/17 03:13:46;;;;;;;9.57;6.18;;;;;;;24.92;46.78;100870.09;4208106;28;20028;-61
2021/06/17 03:15:49;;;;;;;6.05;5.50;;;;;;;24.92;46.27;100877.69;4210199;28;20058;-58
2021/06/17 03:17:51;;;;;;;7.25;6.05;;;;;;;24.89;46.67;100883.94;4210287;28;20032;-56
2021/06/17 03:19:56;;;;;;;7.47;6.07;;;;;;;24.87;46.57;100877.81;4210050;28;20027;-58
2021/06/17 03:22:01;;;;;;;6.93;6.25;;;;;;;24.87;46.62;100887.06;4210303;28;20039;-58
2021/06/17 03:24:05;;;;;;;5.75;5.25;;;;;;;24.83;46.75;100874.00;4209145;28;20147;-58
2021/06/17 03:26:09;;;;;;;7.15;6.47;;;;;;;24.86;46.54;100871.38;4210337;28;20028;-58
2021/06/17 03:28:13;;;;;;;6.85;6.18;;;;;;;24.84;46.52;100870.03;4210940;28;20032;-57
2021/06/17 03:30:14;;;;;;;10.43;6.82;;;;;;;24.78;47.04;100866.56;4209909;28;20474;-58
2021/06/17 03:32:16;;;;;;;7.10;6.20;;;;;;;24.78;46.49;100857.31;4208594;28;20032;-57
2021/06/17 03:34:17;;;;;;;5.75;5.28;;;;;;;24.78;46.79;100854.53;4209039;28;20028;-56
2021/06/17 03:36:18;;;;;;;6.80;6.07;;;;;;;24.77;46.73;100847.28;4207716;28;20028;-54
2021/06/17 03:38:21;;;;;;;8.80;6.60;;;;;;;24.72;46.82;100846.28;4209956;28;20039;-54
2021/06/17 03:40:23;;;;;;;7.20;6.60;;;;;;;24.75;46.97;100842.00;4208229;28;20039;-55
2021/06/17 03:42:25;;;;;;;8.40;6.70;;;;;;;24.73;47.09;100849.88;4210832;28;20031;-55
2021/06/17 03:44:27;;;;;;;7.47;6.43;;;;;;;24.82;46.82;100856.38;4209411;28;20101;-59
2021/06/17 03:46:29;;;;;;;6.95;6.28;;;;;;;24.80;46.84;100861.47;4211011;28;20305;-57
2021/06/17 03:48:32;;;;;;;6.93;6.25;;;;;;;24.85;46.33;100860.50;4208906;28;20024;-59
2021/06/17 03:50:33;;;;;;;10.60;6.45;;;;;;;24.83;46.52;100868.41;4207394;28;20027;-60
2021/06/17 03:52:36;;;;;;;11.50;6.75;;;;;;;24.78;46.52;100866.56;4208195;28;20035;-58
2021/06/17 03:54:36;;;;;;;7.53;6.82;;;;;;;24.75;46.72;100884.00;4210997;28;20301;-58
2021/06/17 03:56:37;;;;;;;7.85;7.05;;;;;;;24.81;46.54;100884.69;4209241;28;20421;-61
2021/06/17 03:58:38;;;;;;;7.10;6.53;;;;;;;24.79;46.92;100886.97;4210984;28;20032;-62
2021/06/17 04:00:39;;;;;;;10.00;6.32;;;;;;;24.80;46.33;100880.25;4208670;28;20033;-61
2021/06/17 04:02:41;;;;;;;11.00;6.10;;;;;;;24.80;46.57;100872.66;4210574;28;20027;-61
2021/06/17 04:04:41;;;;;;;8.98;5.95;;;;;;;24.78;46.44;100877.78;4209614;28;20066;-60
2021/06/17 04:06:44;;;;;;;6.47;5.30;;;;;;;24.80;46.68;100866.25;4207554;28;20036;-61
2021/06/17 04:08:48;;;;;;;7.65;5.43;;;;;;;24.77;46.73;100864.91;4209822;28;20023;-61
2021/06/17 04:10:51;;;;;;;6.95;5.85;;;;;;;24.72;46.81;100859.44;4208271;28;20032;-61
2021/06/17 04:12:55;;;;;;;7.07;6.38;;;;;;;24.66;46.68;100849.53;4208585;28;20040;-61
2021/06/17 04:15:00;;;;;;;7.47;6.10;;;;;;;24.66;47.14;100844.75;4208856;28;20504;-62
2021/06/17 04:17:02;;;;;;;9.63;6.05;;;;;;;24.67;46.97;100848.38;4209165;28;20024;-61
2021/06/17 04:19:03;;;;;;;7.07;6.38;;;;;;;24.67;47.15;100851.16;4210003;28;20358;-62
2021/06/17 04:21:05;;;;;;;7.93;7.15;;;;;;;24.69;46.76;100843.28;4210278;28;20115;-62
2021/06/17 04:23:06;;;;;;;9.55;7.18;;;;;;;24.66;46.78;100850.34;4208500;28;20093;-61
2021/06/17 04:25:09;;;;;;;7.63;6.80;;;;;;;24.71;46.56;100853.00;4209741;28;20038;-61
2021/06/17 04:27:10;;;;;;;7.57;6.72;;;;;;;24.69;46.76;100855.31;4209552;28;20062;-60
2021/06/17 04:29:14;;;;;;;8.27;7.10;;;;;;;24.68;46.82;100859.25;4208151;28;20031;-60
2021/06/17 04:31:15;;;;;;;7.25;6.57;;;;;;;24.68;46.80;100859.25;4208564;28;20034;-59
2021/06/17 04:33:19;;;;;;;8.48;7.60;;;;;;;24.70;46.47;100858.91;4209019;28;20040;-61
2021/06/17 04:35:21;;;;;;;7.35;6.70;;;;;;;24.66;46.71;100858.75;4209028;28;20032;-61
2021/06/17 04:37:26;;;;;;;9.23;7.13;;;;;;;24.65;46.78;100859.06;4208988;28;20132;-61
2021/06/17 04:39:27;;;;;;;12.00;8.05;;;;;;;24.70;47.08;100853.31;4208821;28;20210;-60
2021/06/17 04:41:27;;;;;;;9.18;7.78;;;;;;;24.68;46.79;100855.63;4208699;28;20446;-60
2021/06/17 04:43:32;;;;;;;7.53;6.68;;;;;;;24.67;46.98;100859.56;4206922;28;20039;-61
2021/06/17 04:45:33;;;;;;;8.93;7.18;;;;;;;24.66;46.74;100855.13;4208066;28;20047;-62
2021/06/17 04:47:39;;;;;;;7.53;6.78;;;;;;;24.70;46.70;100859.78;4209299;28;20373;-62
2021/06/17 04:49:40;;;;;;;8.98;7.63;;;;;;;24.67;46.91;100865.16;4207129;28;20452;-62
2021/06/17 04:51:40;;;;;;;8.38;7.18;;;;;;;24.68;46.91;100852.81;4210115;28;20032;-62
2021/06/17 04:53:41;;;;;;;7.22;6.60;;;;;;;24.69;46.69;100851.69;4205366;28;20031;-57
2021/06/17 04:55:45;;;;;;;8.15;6.50;;;;;;;24.70;46.96;100847.72;4207842;28;20035;-59
2021/06/17 04:57:45;;;;;;;8.95;6.50;;;;;;;24.71;46.74;100841.81;4208742;28;20425;-55
2021/06/17 04:59:46;;;;;;;7.78;7.07;;;;;;;24.71;46.70;100836.22;4208237;28;20032;-59
2021/06/17 05:01:47;;;;;;;8.90;7.55;;;;;;;24.72;46.60;100851.06;4208866;28;20036;-58
2021/06/17 05:03:48;;;;;;;8.63;7.80;;;;;;;24.73;47.00;100844.28;4208423;28;20042;-59
2021/06/17 05:05:50;;;;;;;9.98;6.90;;;;;;;24.73;46.76;100845.13;4209112;28;20429;-58
2021/06/17 05:10:48;;;;;;;8.05;6.65;;;;;;;24.73;46.80;100847.09;4209982;28;20718;-60
2021/06/17 05:12:30;;;;;;;8.32;6.32;;;;;;;24.77;46.50;100836.09;4206208;28;19927;-61
2021/06/17 05:14:31;;;;;;;7.07;6.38;;;;;;;24.78;46.66;100832.13;4208329;28;20032;-60
2021/06/17 05:16:31;;;;;;;6.47;5.82;;;;;;;24.80;46.68;100824.25;4206820;28;20147;-55
2021/06/17 05:18:32;;;;;;;9.43;6.22;;;;;;;24.81;46.75;100823.94;4208676;28;20543;-57
2021/06/17 05:20:32;;;;;;;6.40;5.78;;;;;;;24.79;46.62;100823.41;4199473;28;20076;-58
2021/06/17 05:22:36;;;;;;;7.47;6.70;;;;;;;24.84;46.52;100834.50;4208108;28;20175;-56
2021/06/17 05:24:37;;;;;;;7.85;6.88;;;;;;;24.85;46.62;100829.72;4208515;28;20028;-57
2021/06/17 05:26:38;;;;;;;10.48;7.55;;;;;;;24.84;46.71;100828.91;4207742;28;20482;-60
2021/06/17 05:28:38;;;;;;;7.15;6.22;;;;;;;24.85;46.42;100832.50;4208478;28;20031;-57
2021/06/17 05:30:38;;;;;;;7.88;6.78;;;;;;;24.88;46.54;100838.28;4206379;28;20073;-59
2021/06/17 05:32:41;;;;;;;8.02;6.78;;;;;;;24.91;46.59;100839.63;4205940;28;20040;-60
2021/06/17 05:34:42;;;;;;;9.27;6.65;;;;;;;24.91;46.49;100842.44;4208135;28;20040;-58
2021/06/17 05:36:42;;;;;;;7.32;6.63;;;;;;;24.88;46.62;100846.69;4201860;28;20032;-60
2021/06/17 05:38:43;;;;;;;7.00;6.30;;;;;;;24.96;46.34;100849.88;4208321;28;20046;-59
2021/06/17 05:40:45;;;;;;;6.88;6.18;;;;;;;24.92;45.01;100847.72;4207010;28;20034;-61
2021/06/17 05:42:45;;;;;;;7.63;6.80;;;;;;;25.03;45.85;100853.84;4207782;28;20202;-58
2021/06/17 05:44:46;;;;;;;6.97;6.35;;;;;;;25.00;45.08;100856.50;4207016;28;20526;-59
2021/06/17 05:46:46;;;;;;;7.35;6.65;;;;;;;24.98;46.23;100847.56;4208852;28;20397;-60
2021/06/17 05:48:47;;;;;;;10.80;7.60;;;;;;;24.96;46.61;100861.88;4207543;28;20039;-61
2021/06/17 05:50:47;;;;;;;8.32;6.82;;;;;;;25.04;45.80;100863.06;4208059;28;20452;-61
2021/06/17 05:52:48;;;;;;;7.07;6.47;;;;;;;25.06;45.88;100863.59;4209126;28;20028;-62
2021/06/17 05:54:48;;;;;;;7.38;6.68;;;;;;;25.09;45.81;100857.34;4207189;28;20028;-62
2021/06/17 05:56:49;;;;;;;7.15;6.45;;;;;;;25.10;45.69;100854.25;4208725;28;20035;-62
2021/06/17 05:58:49;;;;;;;8.02;6.55;;;;;;;25.10;45.98;100864.59;4207981;28;20043;-62
2021/06/17 06:00:50;;;;;;;8.30;6.20;;;;;;;25.14;44.40;100865.59;4206869;28;20428;-61
2021/06/17 06:02:50;;;;;;;10.15;6.38;;;;;;;25.13;44.51;100865.94;4208057;28;20032;-60
2021/06/17 06:04:51;;;;;;;6.13;5.60;;;;;;;25.14;43.96;100857.22;4207916;28;20069;-61
2021/06/17 06:06:52;;;;;;;8.50;5.80;;;;;;;25.11;44.14;100855.88;4208566;28;20453;-60
2021/06/17 06:08:52;;;;;;;7.13;6.40;;;;;;;25.06;44.18;100855.19;4208601;28;20032;-61
2021/06/17 06:10:53;;;;;;;6.00;5.47;;;;;;;25.07;44.61;100848.44;4223987;28;20027;-62
2021/06/17 06:12:54;;;;;;;6.90;5.47;;;;;;;25.10;43.90;100847.78;4208390;28;20027;-61
2021/06/17 06:14:54;;;;;;;7.72;6.13;;;;;;;25.17;45.24;100850.97;4204751;28;20024;-62
2021/06/17 06:16:54;;;;;;;9.10;5.72;;;;;;;25.20;43.81;100839.16;4209026;28;20150;-61
2021/06/17 06:18:55;;;;;;;6.90;6.20;;;;;;;25.17;44.01;100839.75;4208226;28;20032;-60
2021/06/17 06:20:58;;;;;;;6.50;5.90;;;;;;;25.12;43.95;100837.09;4207312;28;20036;-61
2021/06/17 06:22:59;;;;;;;8.10;5.80;;;;;;;25.08;44.73;100842.50;4207214;28;20134;-61
2021/06/17 06:24:59;;;;;;;6.70;5.80;;;;;;;25.11;44.35;100852.25;4206685;28;20093;-61
2021/06/17 06:27:00;;;;;;;6.07;5.45;;;;;;;25.06;44.87;100838.41;4208149;28;20024;-61
2021/06/17 06:29:00;;;;;;;6.65;5.70;;;;;;;25.07;44.67;100838.06;4206947;28;20760;-62
2021/06/17 06:31:01;;;;;;;6.95;5.72;;;;;;;25.09;44.01;100838.56;4206188;28;20032;-62
2021/06/17 06:33:01;;;;;;;5.95;5.35;;;;;;;25.09;44.23;100834.94;4207724;28;20140;-62
2021/06/17 06:35:04;;;;;;;5.78;5.28;;;;;;;25.13;44.47;100835.13;4211077;28;20069;-63
2021/06/17 06:37:05;;;;;;;5.85;5.25;;;;;;;25.11;44.65;100830.66;4211481;28;20433;-63
2021/06/17 06:39:05;;;;;;;6.90;4.82;;;;;;;25.10;44.47;100823.44;4212072;28;20032;-61
2021/06/17 06:41:06;;;;;;;8.95;6.25;;;;;;;25.14;44.06;100832.00;4210492;28;20046;-63
2021/06/17 06:43:08;;;;;;;6.55;5.28;;;;;;;25.17;44.45;100828.56;4209277;28;20086;-61
2021/06/17 06:45:09;;;;;;;8.52;5.90;;;;;;;25.14;44.46;100828.38;4209281;28;20047;-61
2021/06/17 06:47:10;;;;;;;6.18;5.57;;;;;;;25.08;43.92;100819.28;4209539;28;20063;-62
2021/06/17 06:49:11;;;;;;;8.32;6.13;;;;;;;25.17;44.30;100827.75;4208639;28;20038;-60
2021/06/17 06:51:11;;;;;;;6.63;5.97;;;;;;;25.20;44.02;100836.34;4208045;28;20063;-61
2021/06/17 06:53:12;;;;;;;6.68;5.97;;;;;;;25.17;44.24;100848.16;4209551;28;20485;-62
2021/06/17 06:55:16;;;;;;;7.80;6.30;;;;;;;25.15;44.68;100846.81;4212393;28;20043;-63
2021/06/17 06:57:16;;;;;;;6.00;5.40;;;;;;;25.14;44.44;100860.00;4205774;28;20050;-61
2021/06/17 06:59:16;;;;;;;9.10;5.93;;;;;;;25.21;44.49;100865.16;4210842;28;20036;-62
2021/06/17 07:01:17;;;;;;;7.40;5.72;;;;;;;25.19;44.58;100856.25;4209943;28;20059;-62
2021/06/17 07:03:17;;;;;;;12.18;5.82;;;;;;;25.22;43.78;100864.84;4209292;28;20037;-62
2021/06/17 07:05:18;;;;;;;6.28;5.78;;;;;;;25.25;43.78;100847.41;4208993;28;20590;-61
2021/06/17 07:07:18;;;;;;;8.85;5.40;;;;;;;25.22;43.96;100859.25;4210779;28;20044;-63
2021/06/17 07:09:19;;;;;;;6.80;5.05;;;;;;;25.25;44.37;100854.97;4210072;28;20153;-65
2021/06/17 07:11:19;;;;;;;7.93;5.43;;;;;;;25.23;43.90;100865.69;4210257;28;20031;-65
2021/06/17 07:13:21;;;;;;;12.23;5.78;;;;;;;25.24;44.21;100872.94;4208447;28;20206;-60
2021/06/17 07:15:22;;;;;;;6.32;4.63;;;;;;;25.33;43.82;100887.00;4209256;28;20032;-63
2021/06/17 07:17:23;;;;;;;6.82;5.20;;;;;;;25.45;44.28;100909.63;4211192;28;20047;-62
2021/06/17 07:19:23;;;;;;;7.28;4.88;;;;;;;25.42;43.70;100896.25;4208987;28;20055;-63
2021/06/17 07:21:24;;;;;;;9.45;4.95;;;;;;;25.43;43.80;100904.34;4211889;28;20111;-64
2021/06/17 07:23:28;;;;;;;7.43;4.88;;;;;;;25.31;43.79;100898.53;4214410;28;20063;-62
2021/06/17 07:25:29;;;;;;;7.18;5.13;;;;;;;25.37;44.06;100908.44;4208266;28;20031;-63
2021/06/17 07:27:29;;;;;;;8.52;4.60;;;;;;;25.48;43.49;100902.56;4209570;28;20414;-62
2021/06/17 07:29:31;;;;;;;10.98;5.00;;;;;;;25.56;43.24;100913.78;4202752;28;20060;-62
2021/06/17 07:31:31;;;;;;;8.10;4.47;;;;;;;25.49;43.01;100912.59;4211298;28;20051;-61
2021/06/17 07:33:32;;;;;;;6.63;4.90;;;;;;;25.53;42.77;100908.81;4211399;28;20035;-61
2021/06/17 07:35:32;;;;;;;7.47;4.90;;;;;;;25.42;42.63;100918.69;4210262;28;20108;-61
2021/06/17 07:37:33;;;;;;;9.80;5.40;;;;;;;25.37;42.69;100911.25;4210054;28;20035;-62
2021/06/17 07:39:33;;;;;;;6.70;5.15;;;;;;;25.26;42.28;100927.50;4210847;28;20038;-62
2021/06/17 07:41:35;;;;;;;8.55;5.50;;;;;;;25.16;42.02;100915.72;4211540;28;20028;-63
2021/06/17 07:43:36;;;;;;;10.38;4.68;;;;;;;25.15;42.36;100920.50;4210419;28;20032;-62
2021/06/17 07:45:37;;;;;;;15.23;4.70;;;;;;;25.39;41.94;100919.31;4208828;28;20032;-62
2021/06/17 07:47:38;;;;;;;10.65;4.60;;;;;;;25.17;42.18;100932.19;4209115;28;20028;-62
2021/06/17 07:49:39;;;;;;;14.30;5.10;;;;;;;25.27;42.05;100937.56;4210757;28;20046;-61
2021/06/17 07:51:39;;;;;;;8.18;4.35;;;;;;;25.26;41.97;100929.50;4210230;28;20020;-61
2021/06/17 07:53:40;;;;;;;15.05;4.85;;;;;;;25.13;42.43;100936.78;4211464;28;20028;-61
2021/06/17 07:55:40;;;;;;;14.80;4.78;;;;;;;25.13;42.57;100917.16;4211028;28;20031;-61
2021/06/17 07:57:41;;;;;;;14.30;4.80;;;;;;;25.25;42.66;100908.22;4209723;28;20074;-63
2021/06/17 07:59:41;;;;;;;9.30;4.38;;;;;;;25.41;42.09;100914.22;4210696;28;20063;-62
2021/06/17 08:01:42;;;;;;;7.80;4.85;;;;;;;25.08;42.69;100912.53;4210497;28;20036;-62
2021/06/17 08:03:43;;;;;;;8.07;3.97;;;;;;;25.25;42.56;100892.22;4209908;28;20035;-63
2021/06/17 08:05:43;;;;;;;10.07;4.55;;;;;;;25.19;42.84;100890.69;4211419;28;20605;-63
2021/06/17 08:07:44;;;;;;;7.50;4.57;;;;;;;25.38;42.11;100892.44;4208884;28;20020;-63
2021/06/17 08:09:44;;;;;;;10.70;4.95;;;;;;;25.01;43.21;100900.97;4208712;28;20016;-62
2021/06/17 08:11:46;;;;;;;10.55;4.88;;;;;;;25.14;43.05;100906.81;4210540;28;20028;-61
2021/06/17 08:13:46;;;;;;;9.27;5.13;;;;;;;25.11;42.91;100922.28;4209855;28;20032;-61
2021/06/17 08:15:48;;;;;;;7.93;5.20;;;;;;;25.02;43.14;100939.00;4209773;28;20032;-61
2021/06/17 08:17:49;;;;;;;7.82;5.50;;;;;;;24.91;43.25;100946.03;4210053;28;20028;-62
2021/06/17 08:19:49;;;;;;;10.15;5.93;;;;;;;24.98;43.41;100953.97;4209803;28;20032;-62
2021/06/17 08:21:50;;;;;;;8.63;5.53;;;;;;;25.12;43.15;100949.16;4208394;28;20043;-62
2021/06/17 08:23:54;;;;;;;8.48;5.15;;;;;;;25.12;42.85;100937.94;4209513;28;20036;-62
2021/06/17 08:25:54;;;;;;;8.43;5.35;;;;;;;25.28;42.36;100911.19;4207527;28;20127;-62
2021/06/17 08:28:00;;;;;;;5.75;5.20;;;;;;;25.20;42.87;100923.19;4209353;28;20035;-62
2021/06/17 08:30:05;;;;;;;7.10;5.10;;;;;;;25.29;42.86;100931.66;4208550;28;20043;-62
2021/06/17 08:32:06;;;;;;;6.28;4.40;;;;;;;25.40;42.37;100923.78;4208777;28;20105;-63
2021/06/17 08:34:07;;;;;;;7.90;4.85;;;;;;;25.48;42.43;100917.38;4209005;28;20423;-62
2021/06/17 08:36:08;;;;;;;8.38;4.68;;;;;;;25.44;42.26;100908.81;4209609;28;20036;-62
2021/06/17 08:38:09;;;;;;;9.05;4.43;;;;;;;25.46;42.81;100900.09;4209884;28;20474;-62
2021/06/17 08:40:10;;;;;;;9.25;4.70;;;;;;;25.46;42.75;100902.88;4208905;28;20028;-62
2021/06/17 08:42:10;;;;;;;7.68;4.40;;;;;;;25.42;42.51;100899.88;4207397;28;20043;-62
2021/06/17 08:44:11;;;;;;;9.60;4.68;;;;;;;25.49;42.60;100896.63;4207078;28;20139;-62
2021/06/17 08:46:12;;;;;;;6.80;4.72;;;;;;;25.59;42.20;100887.91;4204327;28;20517;-62
2021/06/17 08:48:12;;;;;;;12.68;5.20;;;;;;;25.48;42.46;100874.53;4207570;28;20127;-62
2021/06/17 08:50:14;;;;;;;7.35;4.25;;;;;;;25.64;42.06;100893.38;4207695;28;20029;-62
2021/06/17 08:52:17;;;;;;;8.80;4.47;;;;;;;25.57;42.31;100895.00;4209805;28;20347;-62
2021/06/17 08:54:19;;;;;;;6.88;4.30;;;;;;;25.63;42.35;100888.91;4208331;28;20039;-63
2021/06/17 08:56:20;;;;;;;6.05;4.03;;;;;;;25.64;42.25;100887.78;4206244;28;20039;-62
2021/06/17 08:58:20;;;;;;;6.25;4.28;;;;;;;25.70;41.95;100873.59;4209857;28;20031;-61
2021/06/17 09:00:20;;;;;;;8.27;4.78;;;;;;;25.69;41.98;100877.53;4208396;28;20055;-61
2021/06/17 09:02:31;;;;;;;6.97;4.68;;;;;;;25.77;41.70;100877.59;4208293;28;20035;-62
2021/06/17 09:04:32;;;;;;;6.90;4.75;;;;;;;25.70;42.10;100882.00;4206789;28;20032;-62
2021/06/17 09:06:33;;;;;;;8.50;5.00;;;;;;;25.72;41.55;100869.34;4203901;28;20385;-62
2021/06/17 09:08:34;;;;;;;7.13;4.15;;;;;;;25.81;41.51;100852.53;4209303;28;20359;-62
2021/06/17 09:10:40;;;;;;;6.28;3.75;;;;;;;25.83;41.54;100844.66;4208501;28;20040;-60
2021/06/17 09:12:48;;;;;;;10.30;4.32;;;;;;;25.89;41.53;100834.06;4206384;28;20089;-61
2021/06/17 09:14:53;;;;;;;6.40;3.90;;;;;;;25.87;41.50;100822.38;4204979;28;20035;-61
2021/06/17 09:17:09;;;;;;;5.63;3.83;;;;;;;25.91;41.42;100815.78;4204596;28;20329;-62
2021/06/17 09:19:09;;;;;;;7.13;4.20;;;;;;;25.94;41.30;100817.94;4203673;28;20032;-62
2021/06/17 09:21:10;;;;;;;4.95;3.72;;;;;;;25.96;41.31;100821.22;4207341;28;20031;-61
2021/06/17 09:23:29;;;;;;;8.35;4.13;;;;;;;25.99;40.98;100828.97;4203178;28;20119;-62
2021/06/17 09:25:29;;;;;;;4.82;3.33;;;;;;;26.02;40.96;100835.91;4208317;28;20078;-61
2021/06/17 09:27:31;;;;;;;5.63;3.65;;;;;;;26.02;40.97;100819.09;4208495;28;20394;-63
2021/06/17 09:29:32;;;;;;;4.07;3.58;;;;;;;26.02;41.29;100823.88;4207920;28;20660;-61
2021/06/17 09:31:34;;;;;;;3.67;3.30;;;;;;;26.05;41.25;100824.03;4207449;28;20040;-61